Time;durP1;ratioP1;P1;durP2;ratioP2;P2;SDS_P1;SDS_P2;PMS_P1;PMS_P2;Temp;Humidity;BMP_temperature;BMP_pressure;BME280_temperature;BME280_humidity;BME280_pressure;Samples;Min_cycle;Max_cycle;Signal;HPM_P1;HPM_P2
2022/05/09 00:00:00;;;;;;;2.42;2.00;;;;;;;8.87;59.77;100022.97;5051221;28;20045;-56
2022/05/09 00:02:26;;;;;;;4.88;2.10;;;;;;;8.91;59.87;100029.81;5052248;28;20041;-53
2022/05/09 00:04:52;;;;;;;3.83;2.00;;;;;;;8.95;59.77;100025.13;5052577;28;20055;-57
2022/05/09 00:07:19;;;;;;;4.38;1.98;;;;;;;8.96;60.06;100017.00;5051994;28;20029;-56
2022/05/09 00:09:44;;;;;;;2.40;1.83;;;;;;;8.96;60.03;100022.34;5051845;28;20341;-54
2022/05/09 00:12:10;;;;;;;2.38;2.13;;;;;;;8.93;60.05;100014.56;5051250;28;20055;-55
2022/05/09 00:14:36;;;;;;;3.60;2.10;;;;;;;8.94;60.28;100010.94;5052157;28;20059;-55
2022/05/09 00:17:01;;;;;;;2.72;2.10;;;;;;;8.96;60.32;100016.16;5051919;28;20366;-54
2022/05/09 00:19:27;;;;;;;3.78;2.20;;;;;;;8.97;60.03;100013.38;5051903;28;20552;-55
2022/05/09 00:21:53;;;;;;;2.85;2.15;;;;;;;8.97;60.21;100026.72;5051849;28;20021;-58
2022/05/09 00:24:20;;;;;;;2.47;2.22;;;;;;;8.98;60.02;100028.44;5051914;28;20025;-56
2022/05/09 00:26:48;;;;;;;2.45;2.25;;;;;;;9.01;60.37;100017.53;5051910;28;20100;-58
2022/05/09 00:29:15;;;;;;;4.35;2.55;;;;;;;8.94;60.05;100023.41;5050518;28;20397;-57
2022/05/09 00:31:43;;;;;;;2.88;2.40;;;;;;;9.01;60.09;100020.22;5050439;28;20059;-57
2022/05/09 00:34:12;;;;;;;2.58;2.17;;;;;;;9.01;60.08;100020.22;5052018;28;20043;-56
2022/05/09 00:36:39;;;;;;;3.90;2.53;;;;;;;8.98;60.05;100023.09;5051512;28;20029;-55
2022/05/09 00:39:06;;;;;;;2.83;2.42;;;;;;;8.97;59.99;100018.72;5051131;28;20032;-57
2022/05/09 00:41:34;;;;;;;5.65;2.83;;;;;;;8.95;60.19;100023.31;5051515;28;20476;-57
2022/05/09 00:44:05;;;;;;;4.50;3.05;;;;;;;8.97;60.22;100018.72;5051506;28;20029;-56
2022/05/09 00:46:31;;;;;;;3.28;2.67;;;;;;;8.95;60.07;100019.78;5051779;28;20051;-56
2022/05/09 00:49:22;;;;;;;3.25;2.92;;;;;;;8.99;60.33;100015.94;5051549;28;20554;-52
2022/05/09 00:52:08;;;;;;;3.10;2.80;;;;;;;9.00;60.30;100014.97;5040646;28;20462;-56
2022/05/09 00:54:37;;;;;;;;;;;;;;;9.25;59.05;100027.44;5051341;28;20171;-56
2022/05/09 00:57:09;;;;;;;5.75;2.90;;;;;;;9.06;59.84;100027.91;5051534;28;19919;-55
2022/05/09 00:59:37;;;;;;;5.13;2.85;;;;;;;8.95;60.07;100019.78;5051056;28;20064;-55
2022/05/09 01:02:04;;;;;;;4.03;2.45;;;;;;;8.92;60.11;100020.00;5050162;28;20032;-52
2022/05/09 01:04:38;;;;;;;3.28;2.67;;;;;;;8.87;60.26;100026.53;5051385;28;20047;-53
2022/05/09 01:07:04;;;;;;;4.93;3.10;;;;;;;8.87;60.24;100039.88;5050991;28;20499;-52
2022/05/09 01:09:29;;;;;;;4.97;2.58;;;;;;;8.87;60.13;100039.00;5050935;28;20453;-55
2022/05/09 01:11:55;;;;;;;3.75;2.65;;;;;;;8.86;60.14;100032.81;5051289;28;20068;-54
2022/05/09 01:14:28;;;;;;;2.90;2.63;;;;;;;8.85;60.43;100016.91;5050931;28;20025;-56
2022/05/09 01:16:54;;;;;;;4.70;2.90;;;;;;;8.84;60.35;100028.53;5051397;28;20047;-55
2022/05/09 01:19:26;;;;;;;4.00;2.50;;;;;;;8.87;60.34;100039.00;5050215;28;20477;-56
2022/05/09 01:21:51;;;;;;;3.78;2.70;;;;;;;8.81;60.63;100031.44;5050682;28;20531;-53
2022/05/09 01:24:20;;;;;;;3.17;2.78;;;;;;;8.81;60.42;100032.31;5050623;28;20052;-57
2022/05/09 01:26:46;;;;;;;3.70;2.90;;;;;;;8.76;60.13;100026.41;5032703;28;20061;-51
2022/05/09 01:29:19;;;;;;;4.80;3.05;;;;;;;8.85;60.48;100038.25;5050978;28;20033;-52
2022/05/09 01:31:47;;;;;;;3.25;2.75;;;;;;;8.83;60.26;100024.16;5049992;28;20037;-55
2022/05/09 01:34:16;;;;;;;3.85;2.75;;;;;;;8.82;60.14;100027.81;5050671;28;20033;-53
2022/05/09 01:36:43;;;;;;;4.63;2.83;;;;;;;8.76;59.90;100024.59;5050846;28;20051;-54
2022/05/09 01:39:11;;;;;;;6.75;2.75;;;;;;;8.68;59.82;100008.28;5050347;28;20031;-56
2022/05/09 01:41:46;;;;;;;2.92;2.63;;;;;;;8.82;59.57;100025.13;5050115;28;20044;-54
2022/05/09 01:44:14;;;;;;;3.95;2.60;;;;;;;8.76;59.43;100026.41;5050600;28;20025;-57
2022/05/09 01:49:32;;;;;;;3.28;2.47;;;;;;;8.74;59.33;100028.34;5050486;28;20174;-54
2022/05/09 01:51:59;;;;;;;3.80;2.28;;;;;;;8.73;59.54;100035.50;5050812;28;20468;-52
2022/05/09 01:54:25;;;;;;;4.63;2.60;;;;;;;8.68;59.29;100029.63;5050892;28;20110;-54
2022/05/09 01:56:51;;;;;;;4.85;2.40;;;;;;;8.70;59.32;100037.53;5050521;28;20091;-53
2022/05/09 01:59:17;;;;;;;3.80;2.40;;;;;;;8.71;59.21;100032.09;5050559;28;20033;-53
2022/05/09 02:01:46;;;;;;;3.53;2.60;;;;;;;8.76;59.14;100040.63;5050667;28;20025;-57
2022/05/09 02:04:12;;;;;;;4.68;2.30;;;;;;;8.68;58.53;100029.63;5050535;28;20075;-58
2022/05/09 02:06:39;;;;;;;5.53;2.30;;;;;;;8.78;58.49;100039.66;5049395;28;20033;-53
2022/05/09 02:09:05;;;;;;;6.75;2.40;;;;;;;8.71;58.05;100020.53;5050557;28;20436;-56
2022/05/09 02:11:30;;;;;;;4.28;2.33;;;;;;;8.80;57.83;100037.72;5050785;28;20112;-55
2022/05/09 02:13:56;;;;;;;2.67;2.05;;;;;;;8.82;57.90;100042.03;5050708;28;20075;-55
2022/05/09 02:16:21;;;;;;;3.53;2.20;;;;;;;8.83;56.93;100038.38;5050351;28;20025;-54
2022/05/09 02:18:47;;;;;;;2.95;2.10;;;;;;;8.88;56.58;100030.03;5050446;28;20104;-53
2022/05/09 02:21:12;;;;;;;2.75;2.08;;;;;;;8.87;56.79;100031.00;5050353;28;20455;-54
2022/05/09 02:23:38;;;;;;;3.60;2.15;;;;;;;8.94;55.53;100037.63;5050245;28;20029;-56
2022/05/09 02:26:04;;;;;;;3.92;1.75;;;;;;;8.95;55.56;100031.31;5050219;28;20158;-52
2022/05/09 02:28:30;;;;;;;4.97;1.95;;;;;;;8.98;55.72;100036.44;5050300;28;20112;-54
2022/05/09 02:30:56;;;;;;;3.15;1.63;;;;;;;9.01;55.39;100030.03;5051603;28;20033;-50
2022/05/09 02:33:21;;;;;;;4.28;2.10;;;;;;;9.07;55.46;100026.94;5053959;28;20044;-55
2022/05/09 02:35:47;;;;;;;1.70;1.60;;;;;;;9.13;54.88;100042.50;5053655;28;20060;-53
2022/05/09 02:38:13;;;;;;;3.05;1.67;;;;;;;9.14;54.40;100027.31;5054115;28;20105;-55
2022/05/09 02:40:40;;;;;;;3.38;1.77;;;;;;;9.13;54.67;100029.16;5054040;28;20086;-55
2022/05/09 02:43:06;;;;;;;2.22;1.67;;;;;;;9.13;54.34;100022.94;5053865;28;20411;-54
2022/05/09 02:45:32;;;;;;;1.58;1.42;;;;;;;9.15;53.58;100023.69;5053904;28;20057;-57
2022/05/09 02:47:57;;;;;;;4.30;1.60;;;;;;;9.19;53.83;100022.53;5053726;28;20060;-53
2022/05/09 02:50:24;;;;;;;4.03;1.85;;;;;;;9.19;53.18;100030.53;5053639;28;20033;-54
2022/05/09 02:52:51;;;;;;;3.88;1.58;;;;;;;9.23;53.52;100036.50;5053711;28;20362;-55
2022/05/09 02:55:18;;;;;;;3.70;1.92;;;;;;;9.25;53.26;100042.59;5053190;28;20029;-55
2022/05/09 02:57:44;;;;;;;5.30;1.90;;;;;;;9.22;53.60;100027.66;5053684;28;20029;-57
2022/05/09 03:00:19;;;;;;;2.50;2.00;;;;;;;9.30;53.59;100025.28;5053745;28;20037;-57
2022/05/09 03:04:38;;;;;;;3.33;1.83;;;;;;;9.22;53.83;100038.34;5053380;28;20105;-55
2022/05/09 03:05:32;;;;;;;4.32;2.10;;;;;;;9.21;54.01;100049.13;5053529;28;20029;-55
2022/05/09 03:07:57;;;;;;;3.13;2.10;;;;;;;9.16;54.47;100044.09;5053063;28;20025;-51
2022/05/09 03:10:23;;;;;;;2.65;1.65;;;;;;;9.15;54.60;100048.59;5053368;28;20051;-53
2022/05/09 03:12:50;;;;;;;4.50;2.10;;;;;;;9.14;54.65;100052.25;5052983;28;20025;-52
2022/05/09 03:15:16;;;;;;;4.13;1.90;;;;;;;9.09;54.62;100048.19;5052981;28;20021;-54
2022/05/09 03:17:41;;;;;;;2.33;1.80;;;;;;;9.04;54.77;100041.34;5053309;28;20114;-54
2022/05/09 03:20:08;;;;;;;3.15;1.80;;;;;;;9.07;54.62;100047.44;5049172;28;20116;-54
2022/05/09 03:22:34;;;;;;;2.08;1.80;;;;;;;9.17;55.07;100051.19;5041409;28;20112;-56
2022/05/09 03:25:00;;;;;;;3.85;2.00;;;;;;;9.31;54.38;100048.34;5041550;28;20021;-56
2022/05/09 03:27:26;;;;;;;4.47;1.98;;;;;;;9.45;53.94;100038.50;5042506;28;20056;-57
2022/05/09 03:29:52;;;;;;;2.33;1.60;;;;;;;9.56;53.52;100041.22;5040865;28;20041;-57
2022/05/09 03:32:18;;;;;;;3.55;1.73;;;;;;;9.70;53.12;100047.41;5041597;28;20032;-58
2022/05/09 03:34:44;;;;;;;4.88;2.10;;;;;;;9.82;53.17;100051.00;5032549;28;20114;-56
2022/05/09 03:37:10;;;;;;;7.43;1.50;;;;;;;9.91;52.62;100043.13;5015044;28;20033;-57
2022/05/09 03:39:36;;;;;;;2.35;1.60;;;;;;;9.96;52.38;100042.78;5032926;28;20065;-60
2022/05/09 03:42:01;;;;;;;2.85;1.67;;;;;;;10.11;51.92;100046.13;5031616;28;20062;-53
2022/05/09 03:44:27;;;;;;;3.58;1.63;;;;;;;10.24;51.56;100045.19;5032588;28;20373;-56
2022/05/09 03:46:52;;;;;;;4.78;1.65;;;;;;;10.40;50.94;100045.78;5032782;28;20439;-55
2022/05/09 03:49:19;;;;;;;4.75;1.50;;;;;;;10.39;50.42;100048.53;5032891;28;20113;-56
2022/05/09 03:51:44;;;;;;;6.78;1.40;;;;;;;10.26;50.42;100043.25;5032811;28;20030;-54
2022/05/09 03:54:10;;;;;;;5.00;1.58;;;;;;;10.16;50.66;100054.66;5032781;28;20108;-54
2022/05/09 03:56:35;;;;;;;1.45;1.25;;;;;;;10.12;50.42;100047.81;5032936;28;20041;-55
2022/05/09 03:59:01;;;;;;;1.65;1.33;;;;;;;10.21;50.02;100046.28;5032670;28;20384;-52
2022/05/09 04:01:26;;;;;;;2.30;1.27;;;;;;;10.36;49.70;100065.66;5032490;28;20040;-54
2022/05/09 04:03:52;;;;;;;2.67;1.50;;;;;;;10.51;49.36;100057.47;5032427;28;20326;-53
2022/05/09 04:06:17;;;;;;;3.45;1.50;;;;;;;11.29;48.02;100061.19;5032779;28;20484;-57
2022/05/09 04:08:43;;;;;;;3.97;1.40;;;;;;;12.26;44.94;100056.97;5032485;28;20117;-56
2022/05/09 04:11:08;;;;;;;4.72;1.70;;;;;;;13.38;42.11;100051.94;5032169;28;20116;-55
2022/05/09 04:13:34;;;;;;;1.25;1.10;;;;;;;15.14;38.48;100052.91;5032646;28;20034;-56
2022/05/09 04:18:44;;;;;;;3.38;1.10;;;;;;;18.10;31.99;100040.94;5032396;28;20036;-56
2022/05/09 04:21:12;;;;;;;2.33;1.30;;;;;;;18.92;30.51;100041.88;5031997;28;20393;-55
2022/05/09 04:23:38;;;;;;;2.67;1.20;;;;;;;19.76;28.64;100046.84;5032406;28;20108;-54
2022/05/09 04:26:05;;;;;;;2.88;1.40;;;;;;;20.62;27.77;100045.03;5032522;28;20145;-56
2022/05/09 04:28:31;;;;;;;4.63;1.20;;;;;;;21.12;26.58;100048.13;5032066;28;20497;-56
2022/05/09 04:30:58;;;;;;;2.85;0.93;;;;;;;20.72;26.95;100031.16;5031716;28;20377;-55
2022/05/09 04:33:24;;;;;;;1.95;1.13;;;;;;;20.80;27.10;100058.31;5032155;28;20492;-58
2022/05/09 04:35:49;;;;;;;2.05;1.00;;;;;;;22.17;25.36;100060.72;5032238;28;20045;-58
2022/05/09 04:38:22;;;;;;;3.67;1.08;;;;;;;22.69;24.62;100066.88;5031818;28;20032;-56
2022/05/09 04:40:51;;;;;;;1.33;0.98;;;;;;;22.12;24.44;100064.00;5014117;28;20071;-54
2022/05/09 04:43:23;;;;;;;1.10;1.00;;;;;;;21.80;26.11;100064.28;5031893;28;20057;-53
2022/05/09 04:45:49;;;;;;;1.90;1.00;;;;;;;21.08;26.04;100061.25;5031803;28;20496;-54
2022/05/09 04:48:16;;;;;;;2.55;1.02;;;;;;;20.76;26.37;100066.00;5031801;28;20025;-54
2022/05/09 04:50:42;;;;;;;3.50;1.30;;;;;;;19.91;26.95;100065.97;5031374;28;20037;-55
2022/05/09 04:53:08;;;;;;;2.05;1.20;;;;;;;19.15;28.06;100054.75;5014127;28;20125;-58
2022/05/09 04:55:33;;;;;;;3.25;1.40;;;;;;;18.83;28.56;100067.34;5030719;28;20445;-57
2022/05/09 04:57:59;;;;;;;2.42;1.35;;;;;;;18.54;29.35;100066.00;5031395;28;20037;-56
2022/05/09 05:00:26;;;;;;;3.75;1.40;;;;;;;19.47;27.92;100071.94;5031488;28;20025;-55
2022/05/09 05:02:53;;;;;;;1.85;1.38;;;;;;;22.17;24.77;100072.44;5031262;28;20075;-56
2022/05/09 05:05:20;;;;;;;2.05;1.30;;;;;;;24.30;21.59;100058.59;5031303;28;20502;-57
2022/05/09 05:07:45;;;;;;;2.72;1.13;;;;;;;25.30;19.99;100062.31;5031263;28;20033;-57
2022/05/09 05:10:12;;;;;;;1.80;1.08;;;;;;;26.88;18.47;100054.66;5031444;28;20110;-57
2022/05/09 05:12:37;;;;;;;4.00;0.90;;;;;;;27.87;17.37;100066.63;5031290;28;20033;-56
2022/05/09 05:15:03;;;;;;;1.50;1.10;;;;;;;28.84;16.26;100058.38;5031214;28;20040;-58
2022/05/09 05:17:29;;;;;;;1.13;1.00;;;;;;;29.30;16.07;100056.66;5030920;28;20377;-60
2022/05/09 05:19:55;;;;;;;1.83;0.90;;;;;;;29.42;15.51;100047.53;5030906;28;20048;-56
2022/05/09 05:22:21;;;;;;;1.58;0.93;;;;;;;28.40;16.53;100064.19;5031156;28;20479;-57
2022/05/09 05:24:51;;;;;;;1.77;1.02;;;;;;;28.40;16.53;100048.50;5031118;28;20353;-57
2022/05/09 05:27:17;;;;;;;1.85;1.00;;;;;;;29.48;15.35;100061.19;5030964;28;20103;-56
2022/05/09 05:29:42;;;;;;;1.02;0.80;;;;;;;29.89;14.97;100074.97;5031124;28;20041;-58
2022/05/09 05:32:15;;;;;;;2.17;1.10;;;;;;;29.80;15.61;100079.22;5031181;28;20516;-58
2022/05/09 05:34:40;;;;;;;1.65;1.00;;;;;;;29.57;14.94;100072.69;5031326;28;20037;-59
2022/05/09 05:37:06;;;;;;;2.08;0.90;;;;;;;30.30;14.29;100079.59;5013616;28;20063;-59
2022/05/09 05:39:34;;;;;;;1.48;1.00;;;;;;;29.21;14.97;100069.97;5030666;28;20025;-57
2022/05/09 05:41:59;;;;;;;3.00;1.13;;;;;;;27.57;17.00;100082.03;5030898;28;20113;-56
2022/05/09 05:44:25;;;;;;;2.38;1.05;;;;;;;27.04;17.19;100087.03;5013351;28;20036;-59
2022/05/09 05:46:51;;;;;;;2.92;0.88;;;;;;;27.88;16.85;100087.56;5030574;28;20033;-55
2022/05/09 05:49:16;;;;;;;2.55;1.10;;;;;;;27.07;17.22;100086.59;5030669;28;20104;-58
2022/05/09 05:51:41;;;;;;;1.30;0.90;;;;;;;25.50;18.56;100088.84;5031265;28;20070;-59
2022/05/09 05:54:07;;;;;;;1.10;0.90;;;;;;;24.57;19.51;100090.59;5030873;28;20025;-56
2022/05/09 05:56:36;;;;;;;1.30;0.90;;;;;;;23.75;20.58;100096.94;5030691;28;20037;-55
2022/05/09 05:59:01;;;;;;;1.10;0.90;;;;;;;24.17;20.37;100089.50;5030737;28;20033;-57
2022/05/09 06:01:26;;;;;;;2.05;0.98;;;;;;;25.94;18.18;100094.56;5030898;28;20037;-53
2022/05/09 06:03:52;;;;;;;0.80;0.80;;;;;;;26.26;18.07;100099.25;5030586;28;20057;-57
2022/05/09 06:06:17;;;;;;;1.80;0.90;;;;;;;25.62;18.19;100091.75;5032522;28;20334;-55
2022/05/09 06:08:43;;;;;;;1.52;0.90;;;;;;;24.23;19.17;100096.88;5034985;28;20051;-56
2022/05/09 06:11:10;;;;;;;3.72;0.90;;;;;;;22.48;21.28;100105.94;5034692;28;20037;-57
2022/05/09 06:13:36;;;;;;;1.85;1.00;;;;;;;21.13;22.71;100108.84;5034700;28;20025;-55
2022/05/09 06:16:01;;;;;;;1.73;0.95;;;;;;;20.54;24.37;100104.94;5034507;28;20394;-56
2022/05/09 06:18:27;;;;;;;1.55;1.00;;;;;;;20.48;24.10;100103.81;5034369;28;20033;-54
2022/05/09 06:20:53;;;;;;;1.15;0.70;;;;;;;20.55;24.27;100103.94;5034718;28;20036;-55
2022/05/09 06:23:18;;;;;;;1.45;1.00;;;;;;;20.47;23.66;100100.22;5034608;28;20095;-56
2022/05/09 06:25:46;;;;;;;2.88;0.80;;;;;;;20.44;24.24;100110.63;5034263;28;22211;-55
2022/05/09 06:28:15;;;;;;;4.53;1.00;;;;;;;20.19;23.75;100116.25;5034514;28;20056;-57
2022/05/09 06:30:42;;;;;;;3.15;0.80;;;;;;;19.87;23.72;100126.22;5034273;28;20034;-57
2022/05/09 06:33:08;;;;;;;1.88;0.82;;;;;;;19.40;24.58;100119.81;5034411;28;20055;-54
2022/05/09 06:35:41;;;;;;;2.03;0.70;;;;;;;19.45;24.96;100133.72;5034092;28;20080;-55
2022/05/09 06:38:06;;;;;;;1.35;0.93;;;;;;;19.70;24.05;100118.19;5033968;28;20041;-57
2022/05/09 06:40:35;;;;;;;2.67;0.82;;;;;;;20.54;23.03;100129.44;5034175;28;20040;-52
2022/05/09 06:43:03;;;;;;;3.47;1.00;;;;;;;20.57;22.58;100127.19;5034113;28;20051;-57
2022/05/09 06:45:29;;;;;;;1.15;0.70;;;;;;;21.13;22.28;100125.19;5033875;28;20029;-56
2022/05/09 06:47:57;;;;;;;1.98;0.80;;;;;;;22.49;20.73;100133.03;5033972;28;20526;-57
2022/05/09 06:50:26;;;;;;;1.60;0.80;;;;;;;23.09;20.32;100131.84;5033936;28;20097;-56
2022/05/09 06:52:52;;;;;;;1.13;0.80;;;;;;;25.54;17.98;100112.00;5033590;28;20026;-57
2022/05/09 06:55:17;;;;;;;1.73;1.00;;;;;;;26.49;16.67;100118.72;5033693;28;20385;-60
2022/05/09 06:57:45;;;;;;;1.73;0.80;;;;;;;26.72;16.77;100125.53;5034002;28;20044;-57
2022/05/09 07:00:14;;;;;;;1.50;0.73;;;;;;;26.78;16.56;100126.53;5033467;28;20037;-56
2022/05/09 07:02:40;;;;;;;1.17;0.75;;;;;;;26.72;16.61;100124.69;5033743;28;20107;-57
2022/05/09 07:05:08;;;;;;;2.83;0.80;;;;;;;26.31;17.10;100127.72;5033464;28;20119;-57
2022/05/09 07:07:34;;;;;;;1.50;1.00;;;;;;;26.60;16.34;100125.41;5033712;28;20113;-57
2022/05/09 07:09:59;;;;;;;2.60;0.80;;;;;;;26.09;16.35;100102.50;5033600;28;20112;-59
2022/05/09 07:12:25;;;;;;;1.42;0.77;;;;;;;25.35;17.45;100120.06;5015635;28;20033;-59
2022/05/09 07:14:50;;;;;;;1.90;0.73;;;;;;;26.47;16.46;100120.03;5033297;28;20084;-58
2022/05/09 07:17:16;;;;;;;1.90;1.00;;;;;;;29.56;13.99;100101.34;5014976;28;20452;-60
2022/05/09 07:19:41;;;;;;;1.75;0.90;;;;;;;32.39;11.62;100096.88;5033124;28;20030;-57
2022/05/09 07:22:07;;;;;;;3.22;1.00;;;;;;;34.47;9.74;100105.09;5033508;28;20029;-56
2022/05/09 07:24:32;;;;;;;2.58;1.05;;;;;;;35.90;8.79;100103.44;5033507;28;20029;-58
2022/05/09 07:26:58;;;;;;;2.00;0.80;;;;;;;36.84;8.57;100100.81;5033279;28;20052;-58
2022/05/09 07:29:24;;;;;;;1.33;0.80;;;;;;;34.17;9.69;100092.88;5033264;28;20043;-59
2022/05/09 07:31:49;;;;;;;1.60;0.82;;;;;;;30.68;12.03;100096.56;5033415;28;20037;-61
2022/05/09 07:34:14;;;;;;;1.65;0.95;;;;;;;27.90;14.58;100104.69;5033179;28;20030;-58
2022/05/09 07:36:41;;;;;;;2.40;0.85;;;;;;;25.10;16.72;100117.16;5033067;28;20168;-57
2022/05/09 07:39:07;;;;;;;0.93;0.70;;;;;;;22.39;19.08;100109.81;5033300;28;20033;-57
2022/05/09 07:41:33;;;;;;;1.00;0.80;;;;;;;20.26;21.18;100119.94;5033044;28;20025;-59
2022/05/09 07:43:59;;;;;;;0.70;0.70;;;;;;;18.74;23.72;100101.78;5032678;28;20031;-57
2022/05/09 07:46:24;;;;;;;2.13;0.90;;;;;;;17.73;25.61;100118.00;5032943;28;20342;-56
2022/05/09 07:48:50;;;;;;;1.63;0.85;;;;;;;18.56;24.39;100112.78;5033078;28;20036;-58
2022/05/09 07:51:16;;;;;;;2.58;1.08;;;;;;;20.78;21.41;100114.75;5015450;28;20048;-57
2022/05/09 07:53:41;;;;;;;2.40;0.65;;;;;;;24.33;18.04;100117.50;5032622;28;20033;-57
2022/05/09 07:56:07;;;;;;;0.85;0.60;;;;;;;27.74;14.44;100106.16;5032788;28;20473;-59
2022/05/09 07:58:34;;;;;;;2.33;0.70;;;;;;;30.01;12.37;100123.78;5032726;28;20458;-57
2022/05/09 08:01:00;;;;;;;1.58;1.02;;;;;;;31.55;10.61;100113.59;5032335;28;20131;-58
2022/05/09 08:03:31;;;;;;;2.03;0.88;;;;;;;32.31;10.35;100112.00;5032296;28;20470;-56
2022/05/09 08:05:59;;;;;;;1.98;1.10;;;;;;;32.56;10.40;100104.22;5032728;28;20025;-58
2022/05/09 08:08:26;;;;;;;1.58;1.10;;;;;;;32.22;10.38;100103.31;5032667;28;20026;-58
2022/05/09 08:10:51;;;;;;;2.35;0.98;;;;;;;30.06;11.39;100088.00;5032458;28;20526;-57
2022/05/09 08:13:18;;;;;;;1.88;1.10;;;;;;;27.59;13.97;100107.41;5032574;28;20113;-58
2022/05/09 08:15:46;;;;;;;3.67;1.20;;;;;;;25.71;15.30;100117.88;5032447;28;20124;-56
2022/05/09 08:18:13;;;;;;;1.98;0.90;;;;;;;23.98;16.75;100093.84;5032395;28;20397;-55
2022/05/09 08:20:40;;;;;;;1.35;0.98;;;;;;;21.89;18.94;100116.81;5032091;28;20156;-56
2022/05/09 08:23:12;;;;;;;3.90;1.08;;;;;;;20.26;20.58;100113.66;5032021;28;20358;-55
2022/05/09 08:25:41;;;;;;;3.67;0.98;;;;;;;19.06;22.75;100128.06;5014366;28;20562;-58
2022/05/09 08:28:08;;;;;;;2.78;0.90;;;;;;;18.59;23.25;100121.41;5032345;28;20061;-59
2022/05/09 08:30:35;;;;;;;2.10;0.90;;;;;;;18.40;23.11;100119.03;5031894;28;20497;-57
2022/05/09 08:33:02;;;;;;;1.63;0.80;;;;;;;18.11;23.83;100123.91;5032257;28;20030;-58
2022/05/09 08:35:28;;;;;;;1.17;0.60;;;;;;;17.79;24.05;100111.94;5032221;28;20389;-57
2022/05/09 08:37:54;;;;;;;2.92;1.00;;;;;;;17.45;25.31;100107.41;5031975;28;20030;-58
2022/05/09 08:40:45;;;;;;;1.63;1.20;;;;;;;17.69;24.54;100133.72;5031807;28;20118;-56
2022/05/09 08:43:23;;;;;;;2.22;0.95;;;;;;;17.60;24.84;100151.81;5031234;28;20429;-60
2022/05/09 08:46:22;;;;;;;2.88;1.05;;;;;;;17.16;25.80;100154.59;5032107;28;20025;-56
2022/05/09 08:49:00;;;;;;;4.20;0.80;;;;;;;16.85;26.68;100163.13;4981578;28;20037;-55
2022/05/09 08:51:34;;;;;;;1.80;1.10;;;;;;;16.26;26.77;100171.69;5031397;28;20056;-59
2022/05/09 08:54:06;;;;;;;2.00;0.63;;;;;;;15.68;28.04;100168.31;5031593;28;20468;-57
2022/05/09 08:56:33;;;;;;;1.30;0.80;;;;;;;15.15;29.40;100159.78;5031659;28;20075;-58
2022/05/09 08:59:04;;;;;;;2.33;1.00;;;;;;;15.02;28.60;100160.09;5031338;28;20511;-55
2022/05/09 09:01:49;;;;;;;2.45;1.00;;;;;;;14.78;29.30;100167.66;5031431;28;20065;-54
2022/05/09 09:04:29;;;;;;;1.88;0.88;;;;;;;14.79;28.70;100165.81;5031753;28;20044;-56
2022/05/09 09:07:39;;;;;;;1.70;0.98;;;;;;;14.80;28.94;100150.50;5031773;28;20137;-55
2022/05/09 09:10:20;;;;;;;2.20;1.20;;;;;;;14.56;30.02;100160.66;5031139;28;20528;-57
2022/05/09 09:13:28;;;;;;;5.80;1.05;;;;;;;14.68;29.83;100161.38;5031120;28;20041;-58
2022/05/09 09:16:23;;;;;;;3.90;1.30;;;;;;;14.77;29.70;100160.56;5031308;28;20040;-58
2022/05/09 09:19:06;;;;;;;2.05;0.95;;;;;;;14.95;29.75;100159.84;5031091;28;20056;-55
2022/05/09 09:21:50;;;;;;;2.15;1.05;;;;;;;15.26;29.09;100156.06;5030928;28;20453;-52
2022/05/09 09:24:34;;;;;;;5.05;1.40;;;;;;;15.14;29.05;100169.75;5031124;28;20041;-58
2022/05/09 09:27:10;;;;;;;1.52;1.00;;;;;;;15.12;29.10;100170.88;5031088;28;20049;-56
2022/05/09 09:29:49;;;;;;;6.70;3.97;;;;;;;15.21;28.14;100167.31;5031148;28;20076;-56
2022/05/09 09:32:18;;;;;;;6.18;3.50;;;;;;;14.94;27.83;100168.91;5030944;28;20124;-56
2022/05/09 09:34:50;;;;;;;7.07;3.83;;;;;;;14.68;28.71;100179.41;5031333;28;20029;-53
2022/05/09 09:37:18;;;;;;;3.92;2.08;;;;;;;14.31;28.91;100178.25;5030834;28;20037;-55
2022/05/09 09:39:43;;;;;;;3.33;1.50;;;;;;;14.24;29.13;100174.41;5030770;28;20081;-54
2022/05/09 09:42:09;;;;;;;1.73;1.10;;;;;;;14.70;28.18;100172.03;5030512;28;20029;-55
2022/05/09 09:44:38;;;;;;;2.15;1.00;;;;;;;15.25;27.55;100190.31;5030733;28;20105;-57
2022/05/09 09:47:08;;;;;;;7.63;1.70;;;;;;;15.14;29.75;100201.25;5030913;28;20029;-58
2022/05/09 09:49:38;;;;;;;4.80;1.10;;;;;;;14.37;31.93;100211.88;5030841;28;20038;-59
2022/05/09 09:52:14;;;;;;;5.70;1.20;;;;;;;13.93;32.35;100204.94;5030985;28;20052;-56
2022/05/09 09:54:44;;;;;;;7.30;1.15;;;;;;;13.50;33.73;100212.25;5030817;28;20064;-55
2022/05/09 09:57:18;;;;;;;2.95;0.90;;;;;;;13.31;33.33;100184.25;5030823;28;20040;-54
2022/05/09 09:59:44;;;;;;;7.10;1.38;;;;;;;13.42;33.75;100230.84;5030908;28;20385;-58
2022/05/09 10:02:25;;;;;;;5.25;1.10;;;;;;;13.54;33.46;100227.16;5031077;28;20064;-59
2022/05/09 10:04:54;;;;;;;2.65;0.82;;;;;;;13.28;35.84;100237.44;5031380;28;20104;-54
2022/05/09 10:07:32;;;;;;;2.22;0.82;;;;;;;13.05;36.40;100251.00;5029847;28;20032;-59
2022/05/09 10:10:10;;;;;;;4.03;0.93;;;;;;;12.52;38.03;100259.84;5031487;28;20044;-59
2022/05/09 10:12:41;;;;;;;3.88;0.90;;;;;;;11.79;40.22;100253.03;5031366;28;20040;-55
2022/05/09 10:15:24;;;;;;;1.42;0.80;;;;;;;11.41;39.95;100249.72;5031060;28;20029;-59
2022/05/09 10:17:50;;;;;;;1.30;0.88;;;;;;;11.05;42.40;100260.44;5030977;28;20090;-60
2022/05/09 10:20:24;;;;;;;1.98;0.95;;;;;;;11.00;41.69;100240.38;5030886;28;20034;-55
2022/05/09 10:25:55;;;;;;;8.55;1.23;;;;;;;10.97;43.83;100246.78;5030327;28;20064;-57
2022/05/09 10:28:22;;;;;;;2.55;1.02;;;;;;;11.06;43.21;100237.22;5030432;28;20040;-54
2022/05/09 10:30:53;;;;;;;2.55;1.05;;;;;;;11.34;42.60;100232.41;5030658;28;20086;-52
2022/05/09 10:33:38;;;;;;;2.63;1.00;;;;;;;11.59;41.52;100238.53;5030668;28;20389;-55
2022/05/09 10:36:19;;;;;;;1.67;1.13;;;;;;;11.95;40.85;100239.28;5030336;28;20144;-54
2022/05/09 10:39:11;;;;;;;2.40;1.13;;;;;;;12.22;39.61;100232.69;5030344;28;20088;-55
2022/05/09 10:41:46;;;;;;;2.25;0.90;;;;;;;12.35;39.59;100248.66;5030389;28;20105;-55
2022/05/09 10:44:19;;;;;;;2.88;1.23;;;;;;;12.48;39.25;100265.47;5030158;28;20432;-57
2022/05/09 10:46:52;;;;;;;2.42;1.20;;;;;;;12.05;40.51;100266.25;5030500;28;20405;-58
2022/05/09 10:49:43;;;;;;;2.33;1.40;;;;;;;11.64;42.83;100263.16;5030390;28;20091;-60
2022/05/09 10:52:15;;;;;;;2.28;0.90;;;;;;;11.17;43.11;100237.22;5031756;28;20034;-56
2022/05/09 10:55:08;;;;;;;2.35;0.82;;;;;;;10.90;42.44;100246.41;5034002;28;20041;-57
2022/05/09 10:57:41;;;;;;;1.73;1.00;;;;;;;10.89;42.36;100250.03;5033529;28;20338;-56
2022/05/09 11:00:12;;;;;;;1.17;0.93;;;;;;;11.08;42.35;100266.56;5033801;28;20454;-57
2022/05/09 11:02:41;;;;;;;3.03;1.17;;;;;;;11.20;42.08;100254.91;5033646;28;20029;-58
2022/05/09 11:05:07;;;;;;;2.42;1.30;;;;;;;11.31;42.66;100270.16;5033531;28;20132;-57
2022/05/09 11:07:48;;;;;;;1.65;1.20;;;;;;;11.53;42.52;100277.41;5033407;28;20041;-55
2022/05/09 11:10:26;;;;;;;6.03;1.73;;;;;;;11.26;45.43;100286.59;5033407;28;20025;-59
2022/05/09 11:13:12;;;;;;;2.88;1.50;;;;;;;11.05;45.32;100297.13;5033629;28;20425;-56
2022/05/09 11:15:38;;;;;;;5.03;1.73;;;;;;;10.48;48.44;100294.13;5033689;28;20037;-55
2022/05/09 11:18:03;;;;;;;1.90;1.30;;;;;;;10.06;49.65;100283.72;5033607;28;20056;-52
2022/05/09 11:20:37;;;;;;;1.77;1.30;;;;;;;9.82;49.71;100284.47;5033756;28;20038;-50
2022/05/09 11:23:34;;;;;;;3.22;1.55;;;;;;;9.72;49.23;100297.63;5033492;28;20079;-54
2022/05/09 11:26:14;;;;;;;1.50;0.90;;;;;;;9.52;50.85;100290.13;5015950;28;20438;-56
2022/05/09 11:28:51;;;;;;;4.72;1.10;;;;;;;9.31;51.82;100275.47;5033665;28;20046;-58
2022/05/09 11:31:52;;;;;;;1.23;0.95;;;;;;;9.46;49.71;100276.25;5033799;28;20033;-55
2022/05/09 11:34:53;;;;;;;1.77;1.27;;;;;;;9.65;50.71;100277.66;4952992;29;20047;-55
2022/05/09 11:37:32;;;;;;;1.50;1.05;;;;;;;9.86;50.13;100283.28;5033453;28;20040;-55
2022/05/09 11:40:21;;;;;;;1.55;1.00;;;;;;;10.02;50.59;100276.88;5033436;28;20121;-54
2022/05/09 11:46:01;;;;;;;1.75;1.30;;;;;;;10.53;48.92;100269.72;5032948;28;20035;-55
2022/05/09 11:48:47;;;;;;;2.22;1.30;;;;;;;11.05;46.52;100273.84;5033120;28;20128;-54
2022/05/09 11:51:48;;;;;;;3.05;1.40;;;;;;;11.34;46.47;100269.94;5033054;28;20362;-57